createdAt,value
2023-03-22T00:00:27.607Z,98156.97
2023-03-22T00:03:33.430Z,98158.28
2023-03-22T00:06:39.803Z,98157.84
2023-03-22T00:09:45.597Z,98159.22
2023-03-22T00:12:52.056Z,98156.06
2023-03-22T00:16:03.041Z,98161.47
2023-03-22T00:19:09.347Z,98165.25
2023-03-22T00:22:14.831Z,98152.50
2023-03-22T00:25:21.606Z,98145.66
2023-03-22T00:28:27.855Z,98151.19
2023-03-22T00:31:36.991Z,98143.50
2023-03-22T00:34:42.479Z,98143.69
2023-03-22T00:37:51.774Z,98145.56
2023-03-22T00:40:57.545Z,98144.03
2023-03-22T00:44:03.834Z,98139.06
2023-03-22T00:47:12.445Z,98133.09
2023-03-22T00:50:18.696Z,98134.28
2023-03-22T00:53:24.156Z,98128.47
2023-03-22T00:56:34.073Z,98131.09
2023-03-22T00:59:48.105Z,98130.44
2023-03-22T01:03:04.316Z,98128.94
2023-03-22T01:06:11.747Z,98128.44
2023-03-22T01:09:18.286Z,98123.41
2023-03-22T01:12:24.712Z,98128.66
2023-03-22T01:15:31.456Z,98113.28
2023-03-22T01:18:40.224Z,98119.44
2023-03-22T01:21:47.364Z,98110.25
2023-03-22T01:24:54.501Z,98113.06
2023-03-22T01:28:03.085Z,98100.34
2023-03-22T01:31:09.305Z,98090.97
2023-03-22T01:34:18.810Z,98080.66
2023-03-22T01:37:27.933Z,98086.06
2023-03-22T01:40:36.804Z,98082.13
2023-03-22T01:43:42.836Z,98087.72
2023-03-22T01:46:52.870Z,98049.44
2023-03-22T01:50:02.101Z,98098.03
2023-03-22T01:53:15.726Z,98095.50
2023-03-22T01:56:28.512Z,98086.91
2023-03-22T01:59:35.736Z,98090.44
2023-03-22T02:02:56.316Z,98080.06
2023-03-22T02:06:15.554Z,98073.97
2023-03-22T02:09:22.353Z,98069.84
2023-03-22T02:12:50.497Z,98049.44
2023-03-22T02:16:41.707Z,98055.84
2023-03-22T02:21:01.196Z,98053.41
2023-03-22T02:24:56.499Z,98053.34
2023-03-22T02:28:20.995Z,98044.34
2023-03-22T02:32:14.231Z,98033.25
2023-03-22T02:35:44.491Z,98036.06
2023-03-22T02:39:24.600Z,97991.03
2023-03-22T02:42:53.396Z,98030.47
2023-03-22T02:46:12.461Z,98026.41
2023-03-22T02:49:34.400Z,98029.72
2023-03-22T02:52:49.408Z,98024.66
2023-03-22T02:56:06.829Z,98027.69
2023-03-22T02:59:17.158Z,98027.69
2023-03-22T03:02:25.492Z,98020.94
2023-03-22T03:05:37.625Z,98028.22
2023-03-22T03:08:46.969Z,98027.53
2023-03-22T03:11:58.032Z,98024.34
2023-03-22T03:15:04.177Z,98033.63
2023-03-22T03:18:35.204Z,98040.50
2023-03-22T03:21:56.961Z,98042.22
2023-03-22T03:25:20.379Z,98037.31
2023-03-22T03:28:43.753Z,98041.53
2023-03-22T03:32:03.013Z,98057.31
2023-03-22T03:35:22.747Z,98055.56
2023-03-22T03:38:37.651Z,98049.47
2023-03-22T03:41:49.774Z,98052.84
2023-03-22T03:45:00.644Z,98047.13
2023-03-22T03:48:13.262Z,98045.25
2023-03-22T03:51:20.724Z,98045.72
2023-03-22T03:54:27.426Z,98056.88
2023-03-22T03:57:33.976Z,98041.50
2023-03-22T04:00:43.008Z,98057.41
2023-03-22T04:04:06.297Z,98046.28
2023-03-22T04:07:33.793Z,98063.31
2023-03-22T04:10:40.935Z,98050.97
2023-03-22T04:13:46.793Z,98044.50
2023-03-22T04:17:01.964Z,98043.22
2023-03-22T04:20:11.601Z,98050.16
2023-03-22T04:23:22.668Z,98047.69
2023-03-22T04:26:30.592Z,98035.88
2023-03-22T04:29:56.479Z,98031.16
2023-03-22T04:33:55.671Z,98002.53
2023-03-22T04:37:09.609Z,98043.56
2023-03-22T04:40:20.993Z,98041.31
2023-03-22T04:43:39.720Z,98043.25
2023-03-22T04:46:49.707Z,98051.94
2023-03-22T04:49:59.754Z,98040.88
2023-03-22T04:53:08.056Z,98062.56
2023-03-22T04:56:17.980Z,98058.78
2023-03-22T04:59:25.474Z,98059.03
2023-03-22T05:02:32.789Z,98064.66
2023-03-22T05:05:41.258Z,98057.41
2023-03-22T05:08:48.030Z,98049.78
2023-03-22T05:11:54.419Z,98048.19
2023-03-22T05:15:43.090Z,98045.25
2023-03-22T05:18:54.624Z,98040.34
2023-03-22T05:22:04.299Z,98038.00
2023-03-22T05:25:27.808Z,98044.84
2023-03-22T05:28:36.153Z,98051.31
2023-03-22T05:31:49.985Z,98050.16
2023-03-22T05:34:56.522Z,98053.34
2023-03-22T05:38:13.357Z,98036.63
2023-03-22T05:41:25.247Z,98051.72
2023-03-22T05:44:31.336Z,98051.44
2023-03-22T05:47:46.970Z,98051.56
2023-03-22T05:50:57.654Z,97943.34
2023-03-22T05:54:07.836Z,98062.50
2023-03-22T05:57:19.237Z,98069.78
2023-03-22T06:00:26.438Z,98066.53
2023-03-22T06:03:52.287Z,98051.44
2023-03-22T06:07:06.559Z,98068.53
2023-03-22T06:10:24.411Z,98066.47
2023-03-22T06:13:31.292Z,98057.97
2023-03-22T06:16:37.282Z,98043.09
2023-03-22T06:19:43.781Z,98067.53
2023-03-22T06:22:51.615Z,98072.75
2023-03-22T06:26:01.296Z,98069.31
2023-03-22T06:29:08.066Z,98061.25
2023-03-22T06:32:14.952Z,98061.47
2023-03-22T06:35:21.096Z,98059.41
2023-03-22T06:38:28.191Z,98058.38
2023-03-22T06:41:37.187Z,98060.53
2023-03-22T06:44:44.984Z,98060.91
2023-03-22T06:47:55.129Z,98053.47
2023-03-22T06:51:13.999Z,98064.03
2023-03-22T06:54:20.102Z,98063.31
2023-03-22T06:57:29.395Z,98057.28
2023-03-22T07:00:35.144Z,98057.25
2023-03-22T07:03:42.437Z,98054.78
2023-03-22T07:06:52.430Z,98060.28
2023-03-22T07:09:59.813Z,98054.56
2023-03-22T07:13:08.632Z,98057.31
2023-03-22T07:16:18.704Z,98067.59
2023-03-22T07:19:35.248Z,98077.31
2023-03-22T07:22:46.672Z,98069.75
2023-03-22T07:25:53.794Z,98072.72
2023-03-22T07:29:13.251Z,98068.31
2023-03-22T07:32:19.447Z,98073.41
2023-03-22T07:35:40.986Z,98078.06
2023-03-22T07:38:47.189Z,98064.91
2023-03-22T07:41:59.884Z,98075.44
2023-03-22T07:45:29.173Z,98045.66
2023-03-22T07:48:54.434Z,98071.09
2023-03-22T07:52:18.306Z,98069.88
2023-03-22T07:55:24.922Z,98064.34
2023-03-22T07:58:30.681Z,98056.88
2023-03-22T08:01:40.962Z,98051.41
2023-03-22T08:04:59.699Z,98057.41
2023-03-22T08:08:33.515Z,98054.22
2023-03-22T08:11:40.212Z,98061.31
2023-03-22T08:14:50.655Z,98058.59
2023-03-22T08:18:04.283Z,98064.50
2023-03-22T08:21:30.960Z,98062.75
2023-03-22T08:24:37.726Z,98042.75
2023-03-22T08:27:46.706Z,98049.56
2023-03-22T08:30:54.650Z,98055.59
2023-03-22T08:34:04.973Z,98054.91
2023-03-22T08:37:12.261Z,98061.13
2023-03-22T08:40:20.232Z,98059.63
2023-03-22T08:43:31.249Z,98043.28
2023-03-22T08:46:37.808Z,97856.22
2023-03-22T08:49:46.216Z,98051.59
2023-03-22T08:53:00.890Z,98037.78
2023-03-22T08:56:11.138Z,98036.53
2023-03-22T08:59:35.202Z,98045.88
2023-03-22T09:02:59.349Z,98037.69
2023-03-22T09:06:09.821Z,98026.56
2023-03-22T09:09:17.994Z,98035.88
2023-03-22T09:12:29.940Z,98023.59
2023-03-22T09:15:35.682Z,98031.22
2023-03-22T09:18:50.670Z,98013.16
2023-03-22T09:22:02.576Z,98029.41
2023-03-22T09:25:19.512Z,98019.72
2023-03-22T09:28:27.516Z,98016.09
2023-03-22T09:31:36.529Z,98013.63
2023-03-22T09:34:57.532Z,98015.94
2023-03-22T09:38:12.412Z,98018.53
2023-03-22T09:41:27.403Z,97855.50
2023-03-22T09:44:44.382Z,98015.06
2023-03-22T09:48:01.965Z,98014.09
2023-03-22T09:51:22.704Z,97968.50
2023-03-22T09:54:38.651Z,98007.84
2023-03-22T09:57:45.373Z,97991.81
2023-03-22T10:01:01.746Z,97998.78
2023-03-22T10:04:41.762Z,97986.72
2023-03-22T10:08:11.779Z,97996.03
2023-03-22T10:11:38.324Z,97989.16
2023-03-22T10:14:51.958Z,97991.84
2023-03-22T10:18:05.556Z,97986.00
2023-03-22T10:21:15.496Z,97969.78
2023-03-22T10:24:29.808Z,97974.94
2023-03-22T10:27:40.584Z,97978.28
2023-03-22T10:30:55.793Z,97974.81
2023-03-22T10:34:08.868Z,97977.22
2023-03-22T10:37:21.409Z,97973.47
2023-03-22T10:40:32.523Z,97976.72
2023-03-22T10:43:45.880Z,97975.16
2023-03-22T10:46:55.782Z,97981.31
2023-03-22T10:50:10.147Z,97974.22
2023-03-22T10:53:31.723Z,97968.53
2023-03-22T10:56:38.130Z,97970.06
2023-03-22T10:59:55.060Z,97970.50
2023-03-22T11:03:04.380Z,97972.16
2023-03-22T11:06:14.614Z,97953.88
2023-03-22T11:09:23.811Z,97950.94
2023-03-22T11:12:32.499Z,97950.06
2023-03-22T11:15:52.692Z,97951.75
2023-03-22T11:19:01.269Z,97950.34
2023-03-22T11:22:23.333Z,97933.91
2023-03-22T11:25:34.250Z,97947.56
2023-03-22T11:28:49.533Z,97935.03
2023-03-22T11:32:01.970Z,97932.53
2023-03-22T11:35:18.052Z,97933.94
2023-03-22T11:38:32.766Z,97923.06
2023-03-22T11:41:43.662Z,97924.16
2023-03-22T11:44:49.599Z,97915.81
2023-03-22T11:48:05.813Z,97919.28
2023-03-22T11:51:15.930Z,97908.13
2023-03-22T11:54:33.642Z,97910.31
2023-03-22T11:57:41.387Z,97901.41
2023-03-22T12:00:52.600Z,97890.13
2023-03-22T12:04:04.816Z,97893.03
2023-03-22T12:07:22.264Z,97899.06
2023-03-22T12:10:35.504Z,97899.88
2023-03-22T12:13:52.906Z,97892.06
2023-03-22T12:17:05.925Z,97880.72
2023-03-22T12:20:33.246Z,97877.06
2023-03-22T12:23:39.712Z,97883.50
2023-03-22T12:26:47.525Z,97875.66
2023-03-22T12:30:01.930Z,97864.03
2023-03-22T12:33:22.177Z,97884.94
2023-03-22T12:36:43.289Z,97871.78
2023-03-22T12:39:58.369Z,97876.59
2023-03-22T12:43:16.900Z,97875.63
2023-03-22T12:46:29.267Z,97871.50
2023-03-22T12:49:49.337Z,97858.88
2023-03-22T12:52:59.726Z,97858.59
2023-03-22T12:56:06.792Z,97847.94
2023-03-22T12:59:23.725Z,97844.91
2023-03-22T13:02:35.733Z,97844.66
2023-03-22T13:05:42.779Z,97853.16
2023-03-22T13:09:40.632Z,97847.09
2023-03-22T13:13:17.712Z,97847.47
2023-03-22T13:16:27.649Z,97847.47
2023-03-22T13:19:39.696Z,97833.75
2023-03-22T13:23:30.651Z,97840.47
2023-03-22T13:26:49.726Z,97827.31
2023-03-22T13:30:05.897Z,97822.28
2023-03-22T13:33:27.610Z,97814.88
2023-03-22T13:36:37.591Z,97819.81
2023-03-22T13:39:46.654Z,97814.75
2023-03-22T13:42:56.262Z,97822.19
2023-03-22T13:46:48.529Z,97814.59
2023-03-22T13:50:06.834Z,97806.41
2023-03-22T13:53:28.736Z,97809.50
2023-03-22T13:56:57.422Z,97803.53
2023-03-22T14:00:20.852Z,97814.00
2023-03-22T14:03:35.148Z,97808.22
2023-03-22T14:06:57.554Z,97794.53
2023-03-22T14:10:09.889Z,97800.22
2023-03-22T14:13:30.775Z,97787.69
2023-03-22T14:16:49.766Z,97778.72
2023-03-22T14:19:58.465Z,97787.78
2023-03-22T14:55:05.111Z,97760.44
2023-03-22T14:58:20.360Z,97769.31
2023-03-22T15:01:33.539Z,97757.44
2023-03-22T15:08:16.338Z,97763.38
2023-03-22T15:11:25.222Z,97750.19
2023-03-22T15:14:37.053Z,97747.84
2023-03-22T15:17:47.659Z,97750.38
2023-03-22T15:20:58.292Z,97740.56
2023-03-22T15:24:32.688Z,97746.69
2023-03-22T15:27:40.175Z,97757.25
2023-03-22T15:30:53.655Z,97763.38
2023-03-22T15:33:59.311Z,97748.56
2023-03-22T15:37:09.299Z,97752.06
2023-03-22T15:40:40.916Z,97740.56
2023-03-22T15:43:48.721Z,97730.88
2023-03-22T15:47:00.772Z,97745.34
2023-03-22T15:50:12.427Z,97728.47
2023-03-22T15:53:35.333Z,97749.31
2023-03-22T15:56:47.676Z,97735.44
2023-03-22T16:00:20.645Z,97747.13
2023-03-22T16:03:44.390Z,97740.78
2023-03-22T16:06:51.314Z,97727.72
2023-03-22T16:10:02.331Z,97741.38
2023-03-22T16:13:20.721Z,97745.63
2023-03-22T16:16:32.436Z,97741.75
2023-03-22T16:19:38.202Z,97728.72
2023-03-22T16:22:48.070Z,97744.53
2023-03-22T16:25:56.854Z,97737.31
2023-03-22T16:29:03.976Z,97742.78
2023-03-22T16:32:16.812Z,97733.09
2023-03-22T16:35:28.012Z,97729.41
2023-03-22T16:38:33.954Z,97718.75
2023-03-22T16:41:43.936Z,97740.59
2023-03-22T16:44:56.183Z,97731.88
2023-03-22T16:48:04.557Z,97733.91
2023-03-22T16:51:23.876Z,97739.84
2023-03-22T16:57:39.117Z,97732.09
2023-03-22T17:00:45.718Z,97744.97
2023-03-22T17:03:54.491Z,97752.88
2023-03-22T17:07:01.250Z,97747.31
2023-03-22T17:10:09.005Z,97743.72
2023-03-22T17:13:19.319Z,97744.03
2023-03-22T17:16:26.205Z,97744.63
2023-03-22T17:19:34.219Z,97749.81
2023-03-22T17:22:41.038Z,97740.38
2023-03-22T17:25:51.714Z,97748.63
2023-03-22T17:29:00.335Z,97756.47
2023-03-22T17:32:16.795Z,97764.69
2023-03-22T17:35:34.601Z,97702.16
2023-03-22T17:38:49.720Z,97764.28
2023-03-22T17:42:09.235Z,97768.47
2023-03-22T17:45:27.541Z,97770.72
2023-03-22T17:48:34.270Z,97772.97
2023-03-22T17:51:41.143Z,97769.91
2023-03-22T17:58:27.529Z,97769.63
2023-03-22T18:01:27.908Z,97772.03
2023-03-22T18:04:37.311Z,97768.81
2023-03-22T18:07:43.694Z,97770.22
2023-03-22T18:10:50.424Z,97773.00
2023-03-22T18:13:57.530Z,97779.69
2023-03-22T18:17:17.362Z,97779.13
2023-03-22T18:20:46.200Z,97781.78
2023-03-22T18:23:52.474Z,97788.88
2023-03-22T18:27:10.595Z,97789.03
2023-03-22T18:30:23.194Z,97785.81
2023-03-22T18:33:32.972Z,97778.84
2023-03-22T18:36:40.816Z,97778.72
2023-03-22T18:40:22.893Z,97773.72
2023-03-22T18:43:15.097Z,97785.13
2023-03-22T18:46:21.767Z,97785.56
2023-03-22T18:49:31.336Z,97772.19
2023-03-22T18:52:54.299Z,97779.28
2023-03-22T18:56:06.887Z,97778.25
2023-03-22T18:59:15.763Z,97779.63
2023-03-22T19:02:38.302Z,97773.22
2023-03-22T19:05:48.988Z,97782.69
2023-03-22T19:08:58.334Z,97779.38
2023-03-22T19:12:04.367Z,97774.06
2023-03-22T19:18:24.121Z,97781.84
2023-03-22T19:21:34.764Z,97782.25
2023-03-22T19:24:42.057Z,97778.75
2023-03-22T19:27:51.970Z,97772.63
2023-03-22T19:30:59.853Z,97781.78
2023-03-22T19:34:06.774Z,97778.44
2023-03-22T19:37:15.477Z,97772.88
2023-03-22T19:41:23.503Z,97780.66
2023-03-22T19:43:48.720Z,97778.53
2023-03-22T19:46:56.430Z,97776.47
2023-03-22T19:50:02.736Z,97772.66
2023-03-22T19:53:51.814Z,97707.00
2023-03-22T19:56:39.677Z,97777.13
2023-03-22T19:59:57.177Z,97780.59
2023-03-22T20:03:12.989Z,97770.56
2023-03-22T20:06:20.343Z,97770.97
2023-03-22T20:09:29.259Z,97776.13
2023-03-22T20:12:36.096Z,97767.75
2023-03-22T20:15:42.346Z,97753.75
2023-03-22T20:18:49.286Z,97761.81
2023-03-22T20:21:55.515Z,97767.09
2023-03-22T20:25:06.410Z,97761.63
2023-03-22T20:28:13.571Z,97764.88
2023-03-22T20:31:21.675Z,97757.59
2023-03-22T20:34:27.727Z,97764.53
2023-03-22T20:37:35.018Z,97760.50
2023-03-22T20:40:44.298Z,97770.38
2023-03-22T20:43:51.429Z,97763.66
2023-03-22T20:46:57.436Z,97760.81
2023-03-22T20:50:04.554Z,97774.72
2023-03-22T20:53:10.550Z,97770.94
2023-03-22T20:56:20.901Z,97757.44
2023-03-22T20:59:26.849Z,97767.16
2023-03-22T21:02:33.548Z,97764.06
2023-03-22T21:05:41.927Z,97763.47
2023-03-22T21:08:48.836Z,97762.91
2023-03-22T21:11:57.713Z,97757.44
2023-03-22T21:15:04.766Z,97758.66
2023-03-22T21:18:10.773Z,97759.75
2023-03-22T21:21:17.841Z,97761.53
2023-03-22T21:24:24.066Z,97758.69
2023-03-22T21:27:34.181Z,97764.72
2023-03-22T21:30:42.382Z,97771.88
2023-03-22T21:33:48.881Z,97755.44
2023-03-22T21:36:54.770Z,97754.91
2023-03-22T21:40:07.252Z,97767.38
2023-03-22T21:43:15.876Z,97764.75
2023-03-22T21:46:23.050Z,97758.41
2023-03-22T21:49:30.389Z,97769.44
2023-03-22T21:52:37.001Z,97764.28
2023-03-22T21:55:44.359Z,97764.03
2023-03-22T21:58:54.679Z,97759.25
2023-03-22T22:02:00.402Z,97752.31
2023-03-22T22:05:07.470Z,97770.97
2023-03-22T22:08:13.152Z,97764.03
2023-03-22T22:11:20.018Z,97751.09
2023-03-22T22:14:28.484Z,97763.91
2023-03-22T22:17:35.443Z,97771.72
2023-03-22T22:20:41.832Z,97775.56
2023-03-22T22:23:49.885Z,97771.97
2023-03-22T22:27:07.374Z,97774.47
2023-03-22T22:30:23.222Z,97770.41
2023-03-22T22:33:29.108Z,97774.16
2023-03-22T22:36:36.496Z,97774.28
2023-03-22T22:39:42.260Z,97765.06
2023-03-22T22:42:48.896Z,97772.97
2023-03-22T22:45:57.813Z,97762.69
2023-03-22T22:49:04.467Z,97767.59
2023-03-22T22:52:11.586Z,97763.31
2023-03-22T22:55:18.263Z,97760.06
2023-03-22T22:58:24.523Z,97777.94
2023-03-22T23:01:34.212Z,97765.25
2023-03-22T23:04:40.230Z,97766.59
2023-03-22T23:07:47.008Z,97770.78
2023-03-22T23:10:56.608Z,97757.97
2023-03-22T23:14:06.384Z,97776.28
2023-03-22T23:17:14.972Z,97763.47
2023-03-22T23:20:23.640Z,97772.34
2023-03-22T23:23:30.172Z,97767.09
2023-03-22T23:26:38.978Z,97773.31
2023-03-22T23:29:45.730Z,97773.34
2023-03-22T23:33:01.100Z,97774.78
2023-03-22T23:36:20.134Z,97782.22
2023-03-22T23:39:29.838Z,97769.00
2023-03-22T23:42:35.810Z,97783.41
2023-03-22T23:45:43.193Z,97775.03
2023-03-22T23:48:52.460Z,97784.38
2023-03-22T23:51:59.210Z,97783.41
2023-03-22T23:55:05.500Z,97775.50
2023-03-22T23:58:12.043Z,97788.34
